Flight Track Log - Related Links

Times and Time Zones

All times are in EDT time to prevent confusion due to time zone crossing. See the D-AIMA flight status page for this flight to view local times or setup timezone preferences in your user account.

Time Position Orientation Groundspeed Altitude Reporting Facility
EDT Latitude Longitude Course Direction KTS MPH feet Rate Location/Type
Fri 08:23:22 AM 50.0100 8.4910 195° South 170 196 1,600  Level FlightAware ADS-B
Fri 08:23:42 AM 49.9910 8.4840 193° South 186 214 1,900 720 Climbing FlightAware ADS-B
Fri 08:24:37 AM 49.9400 8.4610 196° South 254 292 2,500 960 Climbing FlightAware ADS-B
Fri 08:24:57 AM 49.9190 8.4430 209° Southwest 248 285 3,100 2,229 Climbing FlightAware ADS-B
Fri 08:25:12 AM 49.9110 8.4170 244° Southwest 247 284 3,800 2,267 Climbing FlightAware ADS-B
Fri 08:25:42 AM 49.9170 8.3660 280° West 253 291 4,800 2,100 Climbing FlightAware ADS-B
Fri 08:25:52 AM 49.9260 8.3520 315° West 254 292 5,200 2,160 Climbing FlightAware ADS-B
Fri 08:26:07 AM 49.9390 8.3440 338° Northwest 256 295 5,700 1,467 Climbing FlightAware ADS-B
Fri 08:26:37 AM 49.9750 8.3240 340° North 278 320 6,300 1,200 Climbing FlightAware ADS-B
Fri 08:26:52 AM 49.9950 8.3120 339° North 296 341 6,600 1,800 Climbing FlightAware ADS-B
Fri 08:27:17 AM 50.0290 8.2900 337° Northwest 296 341 7,500 2,100 Climbing FlightAware ADS-B
Fri 08:27:32 AM 50.0490 8.2830 347° North 304 350 8,000 2,100 Climbing FlightAware ADS-B
Fri 08:27:57 AM 50.0840 8.2960 13° North 323 372 8,900 1,371 Climbing FlightAware ADS-B
Fri 08:28:42 AM 50.1440 8.3290 19° North 323 372 9,600 1,400 Climbing FlightAware ADS-B
Fri 08:29:27 AM 50.2080 8.3620 18° North 324 373 11,000 1,976 Climbing FlightAware ADS-B
Fri 08:30:07 AM 50.2710 8.3950 19° North 332 382 12,400 1,575 Climbing FlightAware ADS-B
Fri 08:30:47 AM 50.3180 8.4460 35° Northeast 361 415 13,100 900 Climbing FlightAware ADS-B
Fri 08:31:27 AM 50.3610 8.5380 54° Northeast 396 456 13,600 847 Climbing FlightAware ADS-B
Fri 08:32:12 AM 50.4090 8.6470 55° Northeast 421 484 14,300 1,516 Climbing FlightAware ADS-B
Fri 08:33:02 AM 50.4650 8.7730 55° Northeast 425 489 16,000 2,040 Climbing FlightAware ADS-B
Fri 08:33:52 AM 50.5230 8.9030 55° Northeast 435 501 17,700 1,765 Climbing FlightAware ADS-B
Fri 08:34:27 AM 50.5630 8.9930 55° Northeast 453 521 18,500 1,976 Climbing FlightAware ADS-B
Fri 08:35:17 AM 50.6240 9.1310 55° Northeast 454 522 20,500 1,933 Climbing FlightAware ADS-B
Fri 08:35:57 AM 50.6710 9.2380 55° Northeast 462 532 21,400 1,200 Climbing FlightAware ADS-B
Fri 08:36:32 AM 50.7130 9.3350 56° Northeast 481 554 22,000 1,553 Climbing FlightAware ADS-B
Fri 08:37:22 AM 50.7780 9.4840 55° Northeast 483 556 23,600 1,400 Climbing FlightAware ADS-B
Fri 08:38:02 AM 50.8280 9.5990 55° Northeast 498 573 24,100 975 Climbing FlightAware ADS-B
Fri 08:38:42 AM 50.8760 9.7180 57° Northeast 507 583 24,900 1,275 Climbing FlightAware ADS-B
Fri 08:39:22 AM 50.9190 9.8570 64° Northeast 512 589 25,800 1,200 Climbing FlightAware ADS-B
Fri 08:40:12 AM 50.9660 10.0100 64° Northeast 525 604 26,700 758 Climbing FlightAware ADS-B
Fri 08:40:57 AM 51.0110 10.1560 64° Northeast 542 624 27,000 847 Climbing FlightAware ADS-B
Fri 08:41:37 AM 51.0660 10.3390 64° Northeast 548 631 27,900 1,125 Climbing FlightAware ADS-B
Fri 08:42:17 AM 51.1060 10.4770 65° Northeast 556 640 28,500 1,050 Climbing FlightAware ADS-B
Fri 08:42:57 AM 51.1620 10.6270 59° Northeast 569 655 29,300 1,059 Climbing FlightAware ADS-B
Fri 08:43:42 AM 51.2350 10.7760 52° Northeast 569 655 30,000 988 Climbing FlightAware ADS-B
Fri 08:44:22 AM 51.3080 10.8930 45° Northeast 570 656 30,700 1,059 Climbing FlightAware ADS-B
Fri 08:45:07 AM 51.4040 11.0140 38° Northeast 574 661 31,500 1,059 Climbing FlightAware ADS-B
Fri 08:45:47 AM 51.4890 11.1140 36° Northeast 576 663 32,200 1,059 Climbing FlightAware ADS-B
Fri 08:46:32 AM 51.5730 11.2560 46° Northeast 574 661 33,000 1,059 Climbing FlightAware ADS-B
Fri 08:47:12 AM 51.6420 11.3740 47° Northeast 568 654 33,700 1,271 Climbing FlightAware ADS-B
Fri 08:47:57 AM 51.7250 11.5150 46° Northeast 565 650 34,800 975 Climbing FlightAware ADS-B
Fri 08:48:32 AM 51.7880 11.6240 47° Northeast 568 654 35,000 150 Climbing FlightAware ADS-B
Fri 08:49:17 AM 51.8680 11.7620 47° Northeast 567 652 35,000  Level FlightAware ADS-B
Fri 08:50:02 AM 51.9480 11.9010 47° Northeast 568 654 35,000  Level FlightAware ADS-B
Fri 08:50:42 AM 52.0180 12.0220 47° Northeast 570 656 35,000  Level FlightAware ADS-B
Fri 08:51:22 AM 52.0940 12.1550 47° Northeast 569 655 35,000  Level FlightAware ADS-B
Fri 08:52:07 AM 52.1730 12.2940 47° Northeast 569 655 35,000  Level FlightAware ADS-B
Fri 08:52:47 AM 52.2440 12.4200 47° Northeast 570 656 35,000  Level FlightAware ADS-B
Fri 08:53:27 AM 52.3160 12.5480 47° Northeast 569 655 35,000  Level FlightAware ADS-B
Fri 08:54:12 AM 52.3950 12.6900 48° Northeast 569 655 35,000  Level FlightAware ADS-B
Fri 08:54:52 AM 52.4660 12.8180 48° Northeast 569 655 35,000  Level FlightAware ADS-B
Fri 08:55:37 AM 52.5450 12.9590 47° Northeast 563 648 35,000  Level FlightAware ADS-B
Fri 08:56:17 AM 52.6110 13.0810 48° Northeast 562 647 35,000  Level FlightAware ADS-B
Fri 08:56:57 AM 52.6860 13.2160 47° Northeast 562 647 35,000  Level FlightAware ADS-B
Fri 08:57:42 AM 52.7610 13.3550 48° Northeast 563 648 35,000  Level FlightAware ADS-B
Fri 08:58:22 AM 52.8330 13.4880 48° Northeast 564 649 35,000  Level FlightAware ADS-B
Fri 08:59:07 AM 52.9120 13.6350 48° Northeast 565 650 35,000  Level FlightAware ADS-B
Fri 08:59:47 AM 52.9850 13.7700 48° Northeast 563 648 35,000  Level FlightAware ADS-B
Fri 09:00:32 AM 53.0610 13.9140 49° Northeast 562 647 35,000  Level FlightAware ADS-B
Fri 09:01:12 AM 53.1290 14.0420 48° Northeast 563 648 35,000  Level FlightAware ADS-B
Fri 09:01:52 AM 53.1990 14.1750 49° Northeast 568 654 35,000  Level FlightAware ADS-B
Fri 09:02:37 AM 53.2770 14.3240 49° Northeast 569 655 35,000  Level FlightAware ADS-B
Fri 09:03:17 AM 53.3440 14.4530 49° Northeast 570 656 35,000  Level FlightAware ADS-B
Fri 09:03:57 AM 53.4150 14.5910 49° Northeast 570 656 35,000  Level FlightAware ADS-B
Fri 09:04:42 AM 53.4930 14.7420 49° Northeast 570 656 35,000  Level FlightAware ADS-B
Fri 09:05:22 AM 53.5610 14.8740 49° Northeast 571 657 35,000  Level FlightAware ADS-B
Fri 09:06:07 AM 53.6320 15.0140 49° Northeast 573 659 35,000  Level FlightAware ADS-B
Fri 09:06:47 AM 53.7080 15.1640 49° Northeast 573 659 35,000  Level FlightAware ADS-B
Fri 09:07:27 AM 53.7750 15.2970 50° Northeast 574 661 35,000  Level FlightAware ADS-B
Fri 09:08:12 AM 53.8520 15.4520 50° Northeast 574 661 35,000  Level FlightAware ADS-B
Fri 09:08:52 AM 53.9200 15.5890 50° Northeast 572 658 35,000  Level FlightAware ADS-B
Fri 09:09:37 AM 53.9950 15.7410 50° Northeast 572 658 35,000  Level FlightAware ADS-B
Fri 09:10:17 AM 54.0600 15.8720 50° Northeast 573 659 35,000  Level FlightAware ADS-B
Fri 09:11:02 AM 54.1390 16.0330 50° Northeast 574 661 35,000  Level FlightAware ADS-B
Fri 09:11:42 AM 54.2040 16.1680 51° Northeast 569 655 35,000  Level FlightAware ADS-B
Fri 09:12:22 AM 54.2820 16.3290 50° Northeast 574 661 35,000  Level FlightAware ADS-B
Fri 09:13:07 AM 54.3580 16.4890 51° Northeast 574 661 35,000  Level FlightAware ADS-B
Fri 09:13:47 AM 54.4250 16.6290 51° Northeast 575 662 35,000  Level FlightAware ADS-B
Fri 09:14:32 AM 54.4960 16.7780 51° Northeast 575 662 35,000  Level FlightAware ADS-B
Fri 09:15:12 AM 54.5680 16.9310 51° Northeast 575 662 35,000  Level FlightAware ADS-B
Fri 09:15:52 AM 54.6350 17.0750 51° Northeast 576 663 35,000  Level FlightAware ADS-B
Fri 09:16:37 AM 54.7080 17.2320 51° Northeast 574 661 35,000  Level FlightAware ADS-B
Fri 09:17:17 AM 54.7730 17.3730 51° Northeast 575 662 35,000  Level FlightAware ADS-B
Fri 09:18:02 AM 54.8510 17.5420 51° Northeast 577 664 35,000  Level FlightAware ADS-B
Fri 09:18:42 AM 54.9170 17.6880 52° Northeast 578 665 35,000  Level FlightAware ADS-B
Fri 09:19:22 AM 54.9840 17.8330 51° Northeast 578 665 35,000  Level FlightAware ADS-B
Fri 09:20:07 AM 55.0540 17.9900 52° Northeast 576 663 35,000  Level FlightAware ADS-B
Fri 09:20:42 AM 55.1130 18.1210 52° Northeast 578 665 35,000  Level FlightAware ADS-B
Fri 09:21:32 AM 55.1970 18.3060 51° Northeast 578 665 35,000  Level FlightAware ADS-B
Fri 09:22:12 AM 55.2710 18.4380 45° Northeast 575 662 35,000  Level FlightAware ADS-B
Fri 09:22:52 AM 55.3530 18.5540 39° Northeast 574 661 35,000  Level FlightAware ADS-B
Fri 09:23:37 AM 55.4510 18.6690 34° Northeast 573 659 35,000  Level FlightAware ADS-B
Fri 09:24:17 AM 55.5390 18.7720 34° Northeast 575 662 35,000  Level FlightAware ADS-B
Fri 09:25:02 AM 55.6410 18.8920 34° Northeast 577 664 35,000  Level FlightAware ADS-B
Fri 09:25:42 AM 55.7250 19.0030 37° Northeast 583 671 35,000  Level FlightAware ADS-B
Fri 09:26:12 AM 55.7850 19.1030 43° Northeast 584 672 35,000  Level FlightAware ADS-B
Fri 09:26:52 AM 55.8560 19.2480 49° Northeast 585 673 35,000  Level FlightAware ADS-B
Fri 09:27:32 AM 55.9170 19.4050 55° Northeast 583 671 35,000  Level FlightAware ADS-B
Fri 09:28:17 AM 55.9790 19.5860 58° Northeast 584 672 35,000  Level FlightAware ADS-B
Fri 09:28:57 AM 56.0340 19.7490 59° Northeast 585 673 35,000  Level FlightAware ADS-B
Fri 09:29:37 AM 56.0920 19.9210 59° Northeast 586 674 35,000  Level FlightAware ADS-B
Fri 09:30:22 AM 56.1530 20.1010 59° Northeast 586 674 35,000  Level FlightAware ADS-B
Fri 09:31:02 AM 56.2140 20.2660 56° Northeast 588 677 35,000  Level FlightAware ADS-B
Fri 09:31:47 AM 56.2810 20.4470 56° Northeast 586 674 35,000  Level FlightAware ADS-B
Fri 09:32:27 AM 56.3410 20.6120 57° Northeast 587 676 35,000  Level FlightAware ADS-B
Fri 09:33:07 AM 56.4010 20.7770 57° Northeast 586 674 35,000  Level FlightAware ADS-B
Fri 09:33:52 AM 56.4520 20.9170 57° Northeast 586 674 35,000  Level FlightAware ADS-B
Fri 09:34:32 AM 56.5110 21.0810 57° Northeast 588 677 35,000  Level FlightAware ADS-B
Fri 09:35:07 AM 56.5550 21.2220 60° Northeast 586 674 35,000  Level FlightAware ADS-B
Fri 09:35:37 AM 56.5980 21.3630 61° Northeast 586 674 35,000  Level FlightAware ADS-B
Fri 09:36:17 AM 56.6500 21.5330 61° Northeast 585 673 35,000  Level FlightAware ADS-B
Fri 09:37:02 AM 56.7060 21.7200 61° Northeast 584 672 35,000  Level FlightAware ADS-B
Fri 09:37:42 AM 56.7540 21.8790 61° Northeast 585 673 35,000  Level FlightAware ADS-B
Fri 09:38:22 AM 56.8080 22.0600 61° Northeast 585 673 35,000  Level FlightAware ADS-B
Fri 09:38:57 AM 56.8540 22.2150 61° Northeast 584 672 35,000  Level FlightAware ADS-B
Fri 09:39:47 AM 56.9310 22.4790 62° Northeast 583 671 35,000  Level FlightAware ADS-B
Fri 09:40:27 AM 56.9820 22.6540 62° Northeast 583 671 35,000  Level FlightAware ADS-B
Fri 09:41:12 AM 57.0370 22.8480 62° Northeast 583 671 35,000  Level FlightAware ADS-B
Fri 09:41:52 AM 57.0830 23.0110 63° Northeast 582 670 35,000  Level FlightAware ADS-B
Fri 09:42:37 AM 57.1450 23.2310 62° Northeast 582 670 35,000  Level FlightAware ADS-B
Fri 09:43:17 AM 57.1940 23.4050 62° Northeast 582 670 35,000  Level FlightAware ADS-B
Fri 09:43:57 AM 57.2420 23.5820 63° Northeast 584 672 35,000  Level FlightAware ADS-B
Fri 09:44:42 AM 57.2970 23.7820 63° Northeast 585 673 35,000  Level FlightAware ADS-B
Fri 09:45:22 AM 57.3470 23.9630 63° Northeast 584 672 35,000  Level FlightAware ADS-B
Fri 09:46:07 AM 57.3990 24.1560 63° Northeast 584 672 35,000  Level FlightAware ADS-B
Fri 09:46:37 AM 57.4310 24.2760 64° Northeast 583 671 35,000  Level FlightAware ADS-B
Fri 09:47:27 AM 57.4950 24.5170 64° Northeast 582 670 35,000  Level FlightAware ADS-B
Fri 09:48:12 AM 57.5470 24.7160 64° Northeast 583 671 35,000  Level FlightAware ADS-B
Fri 09:48:52 AM 57.5950 24.8980 64° Northeast 583 671 35,000  Level FlightAware ADS-B
Fri 09:49:37 AM 57.6470 25.1010 64° Northeast 583 671 35,000  Level FlightAware ADS-B
Fri 09:50:12 AM 57.6880 25.2570 64° Northeast 584 672 35,000  Level FlightAware ADS-B
Fri 09:50:52 AM 57.7320 25.4320 65° Northeast 582 670 35,000  Level FlightAware ADS-B
Fri 09:51:42 AM 57.7920 25.6670 64° Northeast 578 665 35,000  Level FlightAware ADS-B
Fri 09:52:22 AM 57.8360 25.8470 65° Northeast 577 664 35,000  Level FlightAware ADS-B
Fri 09:53:07 AM 57.8910 26.0400 62° Northeast 578 665 35,000  Level FlightAware ADS-B
Fri 09:53:47 AM 57.9470 26.2210 60° Northeast 578 665 35,000  Level FlightAware ADS-B
Fri 09:54:32 AM 58.0050 26.4140 60° Northeast 579 666 35,000  Level FlightAware ADS-B
Fri 09:55:12 AM 58.0580 26.5910 60° Northeast 579 666 35,000  Level FlightAware ADS-B
Fri 09:55:52 AM 58.1110 26.7660 60° Northeast 580 667 35,000  Level FlightAware ADS-B
Fri 09:56:37 AM 58.1660 26.9550 61° Northeast 580 667 35,000  Level FlightAware ADS-B
Fri 09:57:17 AM 58.2180 27.1320 61° Northeast 580 667 35,000  Level FlightAware ADS-B
Fri 09:58:02 AM 58.2800 27.3450 61° Northeast 580 667 35,000  Level FlightAware ADS-B
Fri 09:58:42 AM 58.3310 27.5070 59° Northeast 582 670 35,000  Level FlightAware ADS-B
Fri 09:59:22 AM 58.4000 27.6790 53° Northeast 581 669 35,000  Level FlightAware ADS-B
Fri 10:00:07 AM 58.4770 27.8580 51° Northeast 583 671 35,000  Level FlightAware ADS-B
Fri 10:00:47 AM 58.5390 28.0050 51° Northeast 585 673 35,000  Level FlightAware ADS-B
Fri 10:01:27 AM 58.6130 28.1780 51° Northeast 587 676 35,000  Level FlightAware ADS-B
Fri 10:02:12 AM 58.6880 28.3570 51° Northeast 588 677 35,000  Level FlightAware ADS-B
Fri 10:02:52 AM 58.7550 28.5190 51° Northeast 588 677 35,000  Level FlightAware ADS-B
Fri 10:03:32 AM 58.8240 28.6860 51° Northeast 587 676 35,000  Level FlightAware ADS-B
Fri 10:04:17 AM 58.8990 28.8680 51° Northeast 588 677 35,000  Level FlightAware ADS-B
Fri 10:04:57 AM 58.9640 29.0280 52° Northeast 590 679 35,000  Level FlightAware ADS-B
Fri 10:05:42 AM 59.0220 29.2010 57° Northeast 592 681 35,000  Level FlightAware ADS-B
Fri 10:06:17 AM 59.0740 29.3940 62° Northeast 592 681 35,000  Level FlightAware ADS-B
Fri 10:07:02 AM 59.1310 29.6050 62° Northeast 590 679 35,000  Level FlightAware ADS-B
Fri 10:07:37 AM 59.1730 29.7630 63° Northeast 591 680 35,000  Level FlightAware ADS-B
Fri 10:08:22 AM 59.2240 29.9560 63° Northeast 591 680 35,000  Level FlightAware ADS-B
Fri 10:09:07 AM 59.2860 30.1950 63° Northeast 591 680 35,000  Level FlightAware ADS-B
Fri 10:09:52 AM 59.3360 30.3900 63° Northeast 591 680 35,000  Level FlightAware ADS-B
Fri 10:10:32 AM 59.3860 30.5860 63° Northeast 590 679 35,000  Level FlightAware ADS-B
Fri 10:11:17 AM 59.4380 30.7930 64° Northeast 593 682 35,000  Level FlightAware ADS-B
Fri 10:12:07 AM 59.5070 31.0690 64° Northeast 593 682 35,000  Level FlightAware ADS-B
Fri 10:12:47 AM 59.5510 31.2480 64° Northeast 592 681 35,000  Level FlightAware ADS-B
Fri 10:13:32 AM 59.6040 31.4660 64° Northeast 590 679 35,000  Level FlightAware ADS-B
Fri 10:14:12 AM 59.6530 31.6640 64° Northeast 589 678 35,000  Level FlightAware ADS-B
Fri 10:14:57 AM 59.7060 31.8820 64° Northeast 590 679 35,000  Level FlightAware ADS-B
Fri 10:15:42 AM 59.7580 32.1020 65° Northeast 591 680 35,000  Level FlightAware ADS-B
Fri 10:16:22 AM 59.8020 32.2970 66° East 592 681 35,000  Level FlightAware ADS-B
Fri 10:17:12 AM 59.8380 32.5280 73° East 593 682 35,000  Level FlightAware ADS-B
Fri 10:18:02 AM 59.8740 32.8350 77° East 593 682 35,000  Level FlightAware ADS-B
Fri 10:18:42 AM 59.8960 33.0200 77° East 593 682 35,000  Level FlightAware ADS-B
Fri 10:19:22 AM 59.9170 33.2010 77° East 592 681 35,000  Level FlightAware ADS-B
Fri 10:20:07 AM 59.9420 33.4140 77° East 592 681 35,000  Level FlightAware ADS-B
Fri 10:20:37 AM 59.9570 33.5500 78° East 592 681 35,000  Level FlightAware ADS-B
Fri 10:21:17 AM 59.9780 33.7310 77° East 592 681 35,000  Level FlightAware ADS-B
Fri 10:21:57 AM 59.9990 33.9120 77° East 592 681 35,000  Level FlightAware ADS-B
Fri 10:22:47 AM 60.0250 34.1390 77° East 592 681 35,000  Level FlightAware ADS-B
Fri 10:23:27 AM 60.0460 34.3210 77° East 592 681 35,000  Level FlightAware ADS-B
Fri 10:23:57 AM 60.0620 34.4570 77° East 592 681 35,000  Level FlightAware ADS-B
Fri 10:24:37 AM 60.0830 34.6390 77° East 592 681 35,000  Level FlightAware ADS-B
Fri 10:25:27 AM 60.1090 34.8670 77° East 592 681 35,000  Level FlightAware ADS-B
Fri 10:26:07 AM 60.1300 35.0490 77° East 592 681 35,000  Level FlightAware ADS-B
Fri 10:26:47 AM 60.1510 35.2310 77° East 592 681 35,000  Level FlightAware ADS-B
Fri 10:27:27 AM 60.1720 35.4140 77° East 592 681 35,000  Level FlightAware ADS-B
Fri 10:28:07 AM 60.1930 35.5960 77° East 592 681 35,000  Level FlightAware ADS-B
Fri 10:28:57 AM 60.2190 35.8240 77° East 592 681 35,000  Level FlightAware ADS-B
Fri 10:31:00 AM 60.3620 36.3129 59° Northeast  Level Estimated
Fri 10:32:00 AM 60.4311 36.5529 60° Northeast  Level Estimated
Fri 10:33:00 AM 60.4997 36.7939 60° Northeast  Level Estimated
Fri 10:34:00 AM 60.5679 37.0360 60° Northeast  Level Estimated
Fri 10:35:00 AM 60.6357 37.2791 60° Northeast  Level Estimated
Fri 10:36:00 AM 60.7030 37.5232 61° Northeast  Level Estimated
Fri 10:37:00 AM 60.7699 37.7683 61° Northeast  Level Estimated
Fri 10:38:00 AM 60.8364 38.0145 61° Northeast  Level Estimated
Fri 10:39:00 AM 60.9024 38.2616 61° Northeast  Level Estimated
Fri 10:40:00 AM 60.9679 38.5098 61° Northeast  Level Estimated
Fri 10:41:00 AM 61.0330 38.7590 62° Northeast  Level Estimated
Fri 10:42:00 AM 61.0976 39.0093 62° Northeast  Level Estimated
Fri 10:43:00 AM 61.1618 39.2605 62° Northeast  Level Estimated
Fri 10:44:00 AM 61.2254 39.5128 62° Northeast  Level Estimated
Fri 10:45:00 AM 61.2886 39.7661 62° Northeast  Level Estimated
Fri 10:46:00 AM 61.3514 40.0204 63° Northeast  Level Estimated
Fri 10:46:37 AM 61.1450 41.7790 63° Northeast 580 667 35,000  Level FlightAware ADS-B
Fri 10:47:27 AM 61.1820 42.0680 75° East 581 669 35,000  Level FlightAware ADS-B
Fri 10:48:12 AM 61.2090 42.2840 75° East 581 669 35,000  Level FlightAware ADS-B
Fri 10:49:02 AM 61.2390 42.5130 75° East 581 669 35,000  Level FlightAware ADS-B
Fri 10:49:42 AM 61.2630 42.6970 75° East 581 669 35,000  Level FlightAware ADS-B
Fri 10:50:22 AM 61.2860 42.8800 75° East 581 669 35,000  Level FlightAware ADS-B
Fri 10:52:00 AM 61.3798 43.3044 65° Northeast  Level Estimated
Fri 10:52:12 AM 61.3650 43.6300 65° Northeast 580 667 35,000  Level FlightAware ADS-B
Fri 10:52:57 AM 61.3900 43.8570 77° East 579 666 35,000  Level FlightAware ADS-B
Fri 10:53:37 AM 61.4130 44.0700 77° East 579 666 35,000  Level FlightAware ADS-B
Fri 10:54:17 AM 61.4360 44.2850 77° East 577 664 35,000  Level FlightAware ADS-B
Fri 10:54:57 AM 61.4600 44.5070 77° East 576 663 35,000  Level FlightAware ADS-B
Fri 10:55:37 AM 61.4830 44.7240 77° East 577 664 35,000  Level FlightAware ADS-B
Fri 10:56:27 AM 61.5090 44.9690 77° East 578 665 35,000  Level FlightAware ADS-B
Fri 10:57:52 AM 61.5570 45.4550 78° East 576 663 35,000  Level FlightAware ADS-B
Fri 10:58:27 AM 61.5750 45.6320 78° East 576 663 35,000  Level FlightAware ADS-B
Fri 10:59:17 AM 61.5980 45.8650 78° East 576 663 35,000  Level FlightAware ADS-B
Fri 10:59:57 AM 61.5570 45.4550 258° West 577 664 35,000  Level FlightAware ADS-B
Fri 11:00:32 AM 61.5740 45.6230 78° East 577 664 35,000  Level FlightAware ADS-B
Fri 11:01:37 AM 61.5720 45.6180 230° Southwest 574 661 35,000  Level FlightAware ADS-B
Fri 11:02:17 AM 61.5890 45.8050 79° East 574 661 35,000  Level FlightAware ADS-B
Fri 11:02:57 AM 61.6060 45.9910 79° East 574 661 35,000  Level FlightAware ADS-B
Fri 11:03:37 AM 61.6240 46.1770 78° East 574 661 35,000  Level FlightAware ADS-B
Fri 11:04:17 AM 61.6410 46.3640 79° East 574 661 35,000  Level FlightAware ADS-B
Fri 11:05:07 AM 61.6620 46.5970 79° East 574 661 35,000  Level FlightAware ADS-B
Fri 11:05:47 AM 61.6800 46.7840 78° East 574 661 35,000  Level FlightAware ADS-B
Fri 11:06:27 AM 61.6970 46.9710 79° East 574 661 35,000  Level FlightAware ADS-B
Fri 11:07:07 AM 61.7140 47.1580 79° East 574 661 35,000  Level FlightAware ADS-B
Fri 11:07:47 AM 61.7310 47.3450 79° East 574 661 35,000  Level FlightAware ADS-B
Fri 11:08:37 AM 61.7530 47.5790 79° East 574 661 35,000  Level FlightAware ADS-B
Fri 11:09:17 AM 61.7700 47.7660 79° East 574 661 35,000  Level FlightAware ADS-B
Fri 11:09:57 AM 61.7870 47.9540 79° East 574 661 35,000  Level FlightAware ADS-B
Fri 11:10:37 AM 61.8040 48.1410 79° East 574 661 35,000  Level FlightAware ADS-B
Fri 11:13:00 AM 61.9174 48.7915 69° East  Level Estimated
Fri 11:14:00 AM 61.9640 49.0659 70° East  Level Estimated
Fri 11:15:00 AM 62.0101 49.3411 70° East  Level Estimated
Fri 11:16:00 AM 62.0556 49.6171 70° East  Level Estimated
Fri 11:17:00 AM 62.1006 49.8940 71° East  Level Estimated
Fri 11:18:00 AM 62.1451 50.1717 71° East  Level Estimated
Fri 11:19:00 AM 62.1889 50.4502 71° East  Level Estimated
Fri 11:20:00 AM 62.2323 50.7295 71° East  Level Estimated
Fri 11:21:00 AM 62.2750 51.0096 72° East  Level Estimated
Fri 11:22:00 AM 62.3172 51.2904 72° East  Level Estimated
Fri 11:23:00 AM 62.3588 51.5721 72° East  Level Estimated
Fri 11:24:00 AM 62.3999 51.8546 72° East  Level Estimated
Fri 11:25:00 AM 62.4403 52.1378 73° East  Level Estimated
Fri 11:26:00 AM 62.4803 52.4218 73° East  Level Estimated
Fri 11:27:00 AM 62.5196 52.7065 73° East  Level Estimated
Fri 11:28:00 AM 62.5583 52.9920 73° East  Level Estimated
Fri 11:29:00 AM 62.5965 53.2782 74° East  Level Estimated
Fri 11:30:00 AM 62.6340 53.5651 74° East  Level Estimated
Fri 11:31:00 AM 62.6710 53.8528 74° East  Level Estimated
Fri 11:32:00 AM 62.7074 54.1412 74° East  Level Estimated
Fri 11:33:00 AM 62.7432 54.4303 75° East  Level Estimated
Fri 11:34:00 AM 62.7784 54.7201 75° East  Level Estimated
Fri 11:35:00 AM 62.8130 55.0106 75° East  Level Estimated
Fri 11:36:00 AM 62.8471 55.3017 76° East  Level Estimated
Fri 11:37:00 AM 62.8805 55.5935 76° East  Level Estimated
Fri 11:38:00 AM 62.9133 55.8860 76° East  Level Estimated
Fri 11:39:00 AM 62.9455 56.1791 76° East  Level Estimated
Fri 11:40:00 AM 62.9771 56.4729 77° East  Level Estimated
Fri 11:41:00 AM 63.0080 56.7673 77° East  Level Estimated
Fri 11:42:00 AM 63.0384 57.0623 77° East  Level Estimated
Fri 11:43:00 AM 63.0681 57.3579 77° East  Level Estimated
Fri 11:44:00 AM 63.0973 57.6542 78° East  Level Estimated
Fri 11:45:00 AM 63.1258 57.9510 78° East  Level Estimated
Fri 11:46:00 AM 63.1537 58.2484 78° East  Level Estimated
Fri 11:47:00 AM 63.1810 58.5463 78° East  Level Estimated
Fri 11:48:00 AM 63.2076 58.8448 79° East  Level Estimated
Fri 11:49:00 AM 63.2336 59.1439 79° East  Level Estimated
Fri 11:50:00 AM 63.2590 59.4435 79° East  Level Estimated
Fri 11:51:00 AM 63.2838 59.7436 79° East  Level Estimated
Fri 11:52:00 AM 63.3079 60.0442 80° East  Level Estimated
Fri 11:53:00 AM 63.3314 60.3453 80° East  Level Estimated
Fri 11:54:00 AM 63.3542 60.6469 80° East  Level Estimated
Fri 11:55:00 AM 63.3764 60.9490 81° East  Level Estimated
Fri 11:56:00 AM 63.3980 61.2516 81° East  Level Estimated
Fri 11:57:00 AM 63.4190 61.5545 81° East  Level Estimated
Fri 11:58:00 AM 63.4393 61.8580 81° East  Level Estimated
Fri 11:59:00 AM 63.4589 62.1618 82° East  Level Estimated
Fri 12:00:00 PM 63.4779 62.4660 82° East  Level Estimated
Fri 12:01:00 PM 63.4963 62.7707 82° East  Level Estimated
Fri 12:02:00 PM 63.5140 63.0757 82° East  Level Estimated
Fri 12:02:17 PM 64.0300 65.9720 83° East 496 571 35,000  Level FlightAware ADS-B
Fri 12:02:57 PM 64.0530 66.1790 76° East 493 567 35,000  Level FlightAware ADS-B
Fri 12:03:00 PM 63.5311 63.3811 83° East  Level Estimated
Fri 12:03:37 PM 64.0770 66.3900 75° East 490 564 35,000  Level FlightAware ADS-B
Fri 12:04:17 PM 64.0990 66.5940 76° East 490 564 35,000  Level FlightAware ADS-B
Fri 12:04:57 PM 64.1200 66.7940 76° East 490 564 35,000  Level FlightAware ADS-B
Fri 12:05:47 PM 64.1480 67.0400 75° East 489 563 35,000  Level FlightAware ADS-B
Fri 12:06:27 PM 64.1710 67.2450 75° East 488 562 35,000  Level FlightAware ADS-B
Fri 12:07:02 PM 64.1920 67.4490 77° East 486 559 35,000  Level FlightAware ADS-B
Fri 12:07:52 PM 64.2160 67.6690 76° East 484 557 35,000  Level FlightAware ADS-B
Fri 12:08:27 PM 64.2320 67.8290 77° East 481 554 35,000  Level FlightAware ADS-B
Fri 12:09:07 PM 64.2530 68.0310 76° East 482 555 35,000  Level FlightAware ADS-B
Fri 12:09:52 PM 64.2750 68.2430 76° East 483 556 35,000  Level FlightAware ADS-B
Fri 12:10:42 PM 64.3050 68.5400 77° East 482 555 35,000  Level FlightAware ADS-B
Fri 12:11:22 PM 64.3230 68.7230 77° East 484 557 35,000  Level FlightAware ADS-B
Fri 12:12:02 PM 64.3420 68.9250 78° East 483 556 35,000  Level FlightAware ADS-B
Fri 12:12:42 PM 64.3640 69.1480 77° East 484 557 35,000  Level FlightAware ADS-B
Fri 12:13:17 PM 64.3770 69.2880 78° East 485 558 35,000  Level FlightAware ADS-B
Fri 12:14:22 PM 64.4080 69.6180 78° East 487 560 35,000  Level FlightAware ADS-B
Fri 12:15:02 PM 64.4260 69.8250 79° East 486 559 35,000  Level FlightAware ADS-B
Fri 12:15:47 PM 64.4460 70.0500 78° East 487 560 35,000  Level FlightAware ADS-B
Fri 12:16:27 PM 64.4640 70.2600 79° East 488 562 35,000  Level FlightAware ADS-B
Fri 12:17:12 PM 64.4850 70.5110 79° East 489 563 35,000  Level FlightAware ADS-B
Fri 12:17:52 PM 64.5010 70.6960 79° East 492 566 35,000  Level FlightAware ADS-B
Fri 12:18:37 PM 64.5200 70.9290 79° East 493 567 35,000  Level FlightAware ADS-B
Fri 12:19:17 PM 64.5380 71.1610 80° East 491 565 35,000  Level FlightAware ADS-B
Fri 12:19:57 PM 64.5540 71.3690 80° East 489 563 35,000  Level FlightAware ADS-B
Fri 12:20:37 PM 64.5680 71.5610 80° East 489 563 35,000  Level FlightAware ADS-B
Fri 12:21:32 PM 64.5890 71.8340 80° East 487 560 35,000  Level FlightAware ADS-B
Fri 12:22:22 PM 64.6070 72.0800 80° East 485 558 35,000  Level FlightAware ADS-B
Fri 12:22:57 PM 64.6200 72.2710 81° East 486 559 35,000  Level FlightAware ADS-B
Fri 12:23:37 PM 64.6350 72.4790 80° East 487 560 35,000 67 Level FlightAware ADS-B
Fri 12:24:27 PM 64.6530 72.7310 80° East 488 562 35,100 467 Climbing FlightAware ADS-B
Fri 12:25:07 PM 64.6680 72.9450 81° East 491 565 35,700 880 Climbing FlightAware ADS-B
Fri 12:25:42 PM 64.6810 73.1320 81° East 494 568 36,200 975 Climbing FlightAware ADS-B
Fri 12:26:27 PM 64.6980 73.3840 81° East 490 564 37,000 565 Climbing FlightAware ADS-B
Fri 12:27:07 PM 64.7100 73.5760 82° East 491 565 37,000  Level FlightAware ADS-B
Fri 12:27:57 PM 64.7260 73.8330 82° East 490 564 37,000  Level FlightAware ADS-B
Fri 12:28:37 PM 64.7390 74.0440 82° East 489 563 37,000  Level FlightAware ADS-B
Fri 12:29:17 PM 64.7520 74.2590 82° East 489 563 37,000  Level FlightAware ADS-B
Fri 12:29:57 PM 64.7640 74.4680 82° East 489 563 37,000  Level FlightAware ADS-B
Fri 12:30:37 PM 64.7760 74.6770 82° East 491 565 37,000  Level FlightAware ADS-B
Fri 12:31:27 PM 64.7910 74.9560 83° East 491 565 37,000  Level FlightAware ADS-B
Fri 12:32:07 PM 64.8030 75.1720 82° East 490 564 37,000  Level FlightAware ADS-B
Fri 12:32:47 PM 64.8130 75.3610 83° East 489 563 37,000  Level FlightAware ADS-B
Fri 12:33:32 PM 64.8260 75.6200 83° East 490 564 37,000  Level FlightAware ADS-B
Fri 12:34:12 PM 64.8350 75.8100 84° East 491 565 37,000  Level FlightAware ADS-B
Fri 12:34:57 PM 64.8460 76.0320 83° East 491 565 37,000  Level FlightAware ADS-B
Fri 12:35:37 PM 64.8560 76.2580 84° East 489 563 37,000  Level FlightAware ADS-B
Fri 12:36:17 PM 64.8650 76.4580 84° East 488 562 37,000  Level FlightAware ADS-B
Fri 12:37:02 PM 64.8740 76.6790 84° East 489 563 37,000  Level FlightAware ADS-B
Fri 12:37:42 PM 64.8840 76.9020 84° East 490 564 37,000  Level FlightAware ADS-B
Fri 12:38:17 PM 64.8910 77.0820 85° East 490 564 37,000  Level FlightAware ADS-B
Fri 12:38:57 PM 64.8990 77.3000 85° East 490 564 37,000  Level FlightAware ADS-B
Fri 12:39:52 PM 64.9100 77.6000 85° East 488 562 37,000  Level FlightAware ADS-B
Fri 12:40:32 PM 64.9100 77.8160 90° East 492 566 37,000  Level FlightAware ADS-B
Fri 12:41:07 PM 64.9000 77.9880 98° East 492 566 37,000  Level FlightAware ADS-B
Fri 12:41:57 PM 64.8790 78.2400 101° East 485 558 37,000  Level FlightAware ADS-B
Fri 12:42:37 PM 64.8620 78.4430 101° East 481 554 37,000  Level FlightAware ADS-B
Fri 12:43:22 PM 64.8420 78.6740 101° East 477 549 37,000  Level FlightAware ADS-B
Fri 12:43:52 PM 64.8280 78.8360 101° East 475 547 37,000  Level FlightAware ADS-B
Fri 12:44:32 PM 64.8100 79.0420 102° East 475 547 37,000  Level FlightAware ADS-B
Fri 12:45:12 PM 64.7920 79.2450 102° East 475 547 37,000  Level FlightAware ADS-B
Fri 12:45:47 PM 64.7760 79.4110 103° East 476 548 37,000  Level FlightAware ADS-B
Fri 12:46:27 PM 64.7580 79.6140 102° East 480 552 37,000  Level FlightAware ADS-B
Fri 12:47:17 PM 64.7370 79.8390 102° East 481 554 37,000  Level FlightAware ADS-B
Fri 12:47:57 PM 64.7210 80.0130 102° East 481 554 37,000  Level FlightAware ADS-B
Fri 12:48:37 PM 64.7060 80.1860 101° East 481 554 37,000  Level FlightAware ADS-B
Fri 12:49:17 PM 64.6900 80.3590 102° East 481 554 37,000 12 Level FlightAware ADS-B
Fri 12:50:02 PM 64.6520 80.6920 105° East 37,000 12 Level FlightAware ADS-B
Fri 12:52:00 PM 64.6052 81.3123 100° East  Level Estimated
Fri 12:53:00 PM 64.5804 81.6269 100° East  Level Estimated
Fri 12:54:00 PM 64.5549 81.9409 101° East  Level Estimated
Fri 12:55:00 PM 64.5288 82.2543 101° East  Level Estimated
Fri 12:56:00 PM 64.5020 82.5671 101° East  Level Estimated
Fri 12:57:00 PM 64.4746 82.8793 101° East  Level Estimated
Fri 12:58:00 PM 64.4465 83.1908 102° East  Level Estimated
Fri 12:59:00 PM 64.4177 83.5017 102° East  Level Estimated
Fri 01:00:00 PM 64.3883 83.8120 102° East  Level Estimated
Fri 01:01:00 PM 64.3582 84.1216 103° East  Level Estimated
Fri 01:02:00 PM 64.3275 84.4305 103° East  Level Estimated
Fri 01:03:00 PM 64.2961 84.7386 103° East  Level Estimated
Fri 01:04:00 PM 64.2641 85.0461 103° East  Level Estimated
Fri 01:05:00 PM 64.2314 85.3529 104° East  Level Estimated
Fri 01:06:00 PM 64.1981 85.6589 104° East  Level Estimated
Fri 01:07:00 PM 64.1641 85.9642 104° East  Level Estimated
Fri 01:08:00 PM 64.1295 86.2688 104° East  Level Estimated
Fri 01:09:00 PM 64.0943 86.5725 105° East  Level Estimated
Fri 01:10:00 PM 64.0585 86.8755 105° East  Level Estimated
Fri 01:11:00 PM 64.0220 87.1778 105° East  Level Estimated
Fri 01:12:00 PM 63.9849 87.4792 106° East  Level Estimated
Fri 01:13:00 PM 63.9471 87.7798 106° East  Level Estimated
Fri 01:14:00 PM 63.9088 88.0796 106° East  Level Estimated
Fri 01:15:00 PM 63.8698 88.3786 106° East  Level Estimated
Fri 01:16:00 PM 63.8302 88.6767 107° East  Level Estimated
Fri 01:17:00 PM 63.7900 88.9740 107° East  Level Estimated
Fri 01:18:00 PM 63.7492 89.2705 107° East  Level Estimated
Fri 01:19:00 PM 63.7078 89.5660 107° East  Level Estimated
Fri 01:20:00 PM 63.6658 89.8607 108° East  Level Estimated
Fri 01:21:00 PM 63.6232 90.1546 108° East  Level Estimated
Fri 01:22:00 PM 63.5799 90.4475 108° East  Level Estimated
Fri 01:23:00 PM 63.5361 90.7396 108° East  Level Estimated
Fri 01:24:00 PM 63.4917 91.0307 109° East  Level Estimated
Fri 01:25:00 PM 63.4468 91.3210 109° East  Level Estimated
Fri 01:26:00 PM 63.4012 91.6103 109° East  Level Estimated
Fri 01:27:00 PM 63.3550 91.8987 110° East  Level Estimated
Fri 01:28:00 PM 63.3083 92.1862 110° East  Level Estimated
Fri 01:29:00 PM 63.2609 92.4727 110° East  Level Estimated
Fri 01:30:00 PM 63.2131 92.7583 110° East  Level Estimated
Fri 01:31:00 PM 63.1646 93.0429 111° Southeast  Level Estimated
Fri 01:32:00 PM 63.1156 93.3266 111° Southeast  Level Estimated
Fri 01:33:00 PM 63.0660 93.6093 111° Southeast  Level Estimated
Fri 01:34:00 PM 63.0158 93.8911 111° Southeast  Level Estimated
Fri 01:35:00 PM 62.9651 94.1719 112° Southeast  Level Estimated
Fri 01:36:00 PM 62.9138 94.4517 112° Southeast  Level Estimated
Fri 01:37:00 PM 62.8620 94.7305 112° Southeast  Level Estimated
Fri 01:38:00 PM 62.8096 95.0083 112° Southeast  Level Estimated
Fri 01:39:00 PM 62.7567 95.2852 113° Southeast  Level Estimated
Fri 01:40:00 PM 62.7033 95.5610 113° Southeast  Level Estimated
Fri 01:41:00 PM 62.6493 95.8359 113° Southeast  Level Estimated
Fri 01:42:00 PM 62.5947 96.1097 113° Southeast  Level Estimated
Fri 01:43:00 PM 62.5396 96.3826 114° Southeast  Level Estimated
Fri 01:44:00 PM 62.4841 96.6544 114° Southeast  Level Estimated
Fri 01:45:00 PM 62.4279 96.9252 114° Southeast  Level Estimated
Fri 01:46:00 PM 62.3713 97.1950 114° Southeast  Level Estimated
Fri 01:47:00 PM 62.3141 97.4638 114° Southeast  Level Estimated
Fri 01:48:00 PM 62.2564 97.7315 115° Southeast  Level Estimated
Fri 01:49:00 PM 62.1982 97.9982 115° Southeast  Level Estimated
Fri 01:50:00 PM 62.1395 98.2639 115° Southeast  Level Estimated
Fri 01:51:00 PM 62.0803 98.5285 115° Southeast  Level Estimated
Fri 01:52:00 PM 62.0206 98.7922 116° Southeast  Level Estimated
Fri 01:53:00 PM 61.9604 99.0547 116° Southeast  Level Estimated
Fri 01:54:00 PM 61.8997 99.3163 116° Southeast  Level Estimated
Fri 01:55:00 PM 61.8384 99.5768 116° Southeast  Level Estimated
Fri 01:56:00 PM 61.7767 99.8362 117° Southeast  Level Estimated
Fri 01:57:00 PM 61.7146 100.0947 117° Southeast  Level Estimated
Fri 01:58:00 PM 61.6519 100.3520 117° Southeast  Level Estimated
Fri 01:59:00 PM 61.5887 100.6084 117° Southeast  Level Estimated
Fri 02:00:00 PM 61.5251 100.8636 118° Southeast  Level Estimated
Fri 02:01:00 PM 61.4610 101.1179 118° Southeast  Level Estimated
Fri 02:02:00 PM 61.3964 101.3710 118° Southeast  Level Estimated
Fri 02:03:00 PM 61.3314 101.6232 118° Southeast  Level Estimated
Fri 02:04:00 PM 61.2659 101.8743 118° Southeast  Level Estimated
Fri 02:05:00 PM 61.1999 102.1243 119° Southeast  Level Estimated
Fri 02:06:00 PM 61.1334 102.3733 119° Southeast  Level Estimated
Fri 02:07:00 PM 61.0666 102.6212 119° Southeast  Level Estimated
Fri 02:08:00 PM 60.9992 102.8681 119° Southeast  Level Estimated
Fri 02:09:00 PM 60.9314 103.1140 119° Southeast  Level Estimated
Fri 02:10:00 PM 60.8632 103.3588 120° Southeast  Level Estimated
Fri 02:11:00 PM 60.7945 103.6025 120° Southeast  Level Estimated
Fri 02:12:00 PM 60.7254 103.8452 120° Southeast  Level Estimated
Fri 02:13:00 PM 60.6558 104.0869 120° Southeast  Level Estimated
Fri 02:14:00 PM 60.5858 104.3275 121° Southeast  Level Estimated
Fri 02:15:00 PM 60.5154 104.5671 121° Southeast  Level Estimated
Fri 02:16:00 PM 60.4446 104.8056 121° Southeast  Level Estimated
Fri 02:17:00 PM 60.3733 105.0431 121° Southeast  Level Estimated
Fri 02:18:00 PM 60.3016 105.2795 121° Southeast  Level Estimated
Fri 02:19:00 PM 60.2295 105.5149 122° Southeast  Level Estimated
Fri 02:20:00 PM 60.1570 105.7493 122° Southeast  Level Estimated
Fri 02:21:00 PM 60.0840 105.9827 122° Southeast  Level Estimated
Fri 02:22:00 PM 60.0107 106.2150 122° Southeast  Level Estimated
Fri 02:23:00 PM 59.9370 106.4462 122° Southeast  Level Estimated
Fri 02:24:00 PM 59.8628 106.6765 123° Southeast  Level Estimated
Fri 02:25:00 PM 59.7882 106.9057 123° Southeast  Level Estimated
Fri 02:26:00 PM 59.7133 107.1339 123° Southeast  Level Estimated
Fri 02:27:00 PM 59.6380 107.3610 123° Southeast  Level Estimated
Fri 02:28:00 PM 59.5622 107.5872 123° Southeast  Level Estimated
Fri 02:29:00 PM 59.4861 107.8123 124° Southeast  Level Estimated
Fri 02:30:00 PM 59.4096 108.0364 124° Southeast  Level Estimated
Fri 02:31:00 PM 59.3327 108.2595 124° Southeast  Level Estimated
Fri 02:32:00 PM 59.2554 108.4816 124° Southeast  Level Estimated
Fri 02:33:00 PM 59.1778 108.7027 124° Southeast  Level Estimated
Fri 02:34:00 PM 59.0998 108.9228 125° Southeast  Level Estimated
Fri 02:35:00 PM 59.0214 109.1419 125° Southeast  Level Estimated
Fri 02:36:00 PM 58.9426 109.3600 125° Southeast  Level Estimated
Fri 02:37:00 PM 58.8635 109.5770 125° Southeast  Level Estimated
Fri 02:38:00 PM 58.7840 109.7931 125° Southeast  Level Estimated
Fri 02:39:00 PM 58.7041 110.0082 125° Southeast  Level Estimated
Fri 02:40:00 PM 58.6239 110.2224 126° Southeast  Level Estimated
Fri 02:41:00 PM 58.5434 110.4355 126° Southeast  Level Estimated
Fri 02:42:00 PM 58.4625 110.6476 126° Southeast  Level Estimated
Fri 02:43:00 PM 58.3812 110.8588 126° Southeast  Level Estimated
Fri 02:44:00 PM 58.2996 111.0690 126° Southeast  Level Estimated
Fri 02:45:00 PM 58.2177 111.2783 127° Southeast  Level Estimated
Fri 02:46:00 PM 58.1354 111.4865 127° Southeast  Level Estimated
Fri 02:47:00 PM 58.0527 111.6938 127° Southeast  Level Estimated
Fri 02:48:00 PM 57.9698 111.9002 127° Southeast  Level Estimated
Fri 02:49:00 PM 57.8865 112.1056 127° Southeast  Level Estimated
Fri 02:50:00 PM 57.8029 112.3100 127° Southeast  Level Estimated
Fri 02:51:00 PM 57.7189 112.5135 128° Southeast  Level Estimated
Fri 02:52:00 PM 57.6346 112.7161 128° Southeast  Level Estimated
Fri 02:53:00 PM 57.5500 112.9177 128° Southeast  Level Estimated
Fri 02:54:00 PM 57.4651 113.1184 128° Southeast  Level Estimated
Fri 02:55:00 PM 57.3799 113.3181 128° Southeast  Level Estimated
Fri 02:56:00 PM 57.2943 113.5169 128° Southeast  Level Estimated
Fri 02:57:00 PM 57.2085 113.7148 129° Southeast  Level Estimated
Fri 02:58:00 PM 57.1223 113.9118 129° Southeast  Level Estimated
Fri 02:59:00 PM 57.0358 114.1078 129° Southeast  Level Estimated
Fri 03:00:00 PM 56.9490 114.3030 129° Southeast  Level Estimated
Fri 03:01:00 PM 56.8619 114.4972 129° Southeast  Level Estimated
Fri 03:02:00 PM 56.7746 114.6906 129° Southeast  Level Estimated
Fri 03:03:00 PM 56.6869 114.8830 130° Southeast  Level Estimated
Fri 03:04:00 PM 56.5989 115.0745 130° Southeast  Level Estimated
Fri 03:05:00 PM 56.5106 115.2652 130° Southeast  Level Estimated
Fri 03:06:00 PM 56.4221 115.4549 130° Southeast  Level Estimated
Fri 03:07:00 PM 56.3332 115.6438 130° Southeast  Level Estimated
Fri 03:08:00 PM 56.2441 115.8318 130° Southeast  Level Estimated
Fri 03:09:00 PM 56.1547 116.0189 131° Southeast  Level Estimated
Fri 03:10:00 PM 56.0649 116.2052 131° Southeast  Level Estimated
Fri 03:11:00 PM 55.9750 116.3906 131° Southeast  Level Estimated
Fri 03:12:00 PM 55.8847 116.5751 131° Southeast  Level Estimated
Fri 03:13:00 PM 55.7942 116.7588 131° Southeast  Level Estimated
Fri 03:14:00 PM 55.7034 116.9416 131° Southeast  Level Estimated
Fri 03:15:00 PM 55.6123 117.1235 132° Southeast  Level Estimated
Fri 03:16:00 PM 55.5210 117.3046 132° Southeast  Level Estimated
Fri 03:17:00 PM 55.4294 117.4849 132° Southeast  Level Estimated
Fri 03:18:00 PM 55.3375 117.6644 132° Southeast  Level Estimated
Fri 03:19:00 PM 55.2453 117.8430 132° Southeast  Level Estimated
Fri 03:20:00 PM 55.1530 118.0208 132° Southeast  Level Estimated
Fri 03:21:00 PM 55.0603 118.1977 132° Southeast  Level Estimated
Fri 03:22:00 PM 54.9674 118.3739 133° Southeast  Level Estimated
Fri 03:23:00 PM 54.8742 118.5492 133° Southeast  Level Estimated
Fri 03:24:00 PM 54.7808 118.7237 133° Southeast  Level Estimated
Fri 03:25:00 PM 54.6872 118.8974 133° Southeast  Level Estimated
Fri 03:26:00 PM 54.5933 119.0703 133° Southeast  Level Estimated
Fri 03:27:00 PM 54.4991 119.2424 133° Southeast  Level Estimated
Fri 03:28:00 PM 54.4047 119.4138 133° Southeast  Level Estimated
Fri 03:29:00 PM 54.3101 119.5843 134° Southeast  Level Estimated
Fri 03:30:00 PM 54.2152 119.7541 134° Southeast  Level Estimated
Fri 03:31:00 PM 54.1201 119.9230 134° Southeast  Level Estimated
Fri 03:32:00 PM 54.0247 120.0912 134° Southeast  Level Estimated
Fri 03:33:00 PM 53.9291 120.2587 134° Southeast  Level Estimated
Fri 03:34:00 PM 53.8333 120.4253 134° Southeast  Level Estimated
Fri 03:35:00 PM 53.7373 120.5912 134° Southeast  Level Estimated
Fri 03:36:00 PM 53.6410 120.7564 134° Southeast  Level Estimated
Fri 03:37:00 PM 53.5445 120.9208 135° Southeast  Level Estimated
Fri 03:38:00 PM 53.4478 121.0844 135° Southeast  Level Estimated
Fri 03:39:00 PM 53.3508 121.2473 135° Southeast  Level Estimated
Fri 03:40:00 PM 53.2537 121.4094 135° Southeast  Level Estimated
Fri 03:40:17 PM 54.9190 122.7960 135° Southeast 490 564 39,000  Level FlightAware ADS-B
Fri 03:40:57 PM 54.8620 122.9240 128° Southeast 489 563 39,000  Level FlightAware ADS-B
Fri 03:41:00 PM 53.1563 121.5709 135° Southeast  Level Estimated
Fri 03:41:42 PM 54.8000 123.0600 128° Southeast 491 565 39,000  Level FlightAware ADS-B
Fri 03:42:22 PM 54.7450 123.1800 128° Southeast 493 567 39,000  Level FlightAware ADS-B
Fri 03:43:07 PM 54.6800 123.3190 129° Southeast 494 568 39,000  Level FlightAware ADS-B
Fri 03:43:47 PM 54.6250 123.4380 129° Southeast 496 571 39,000  Level FlightAware ADS-B
Fri 03:44:27 PM 54.5650 123.5660 129° Southeast 497 572 39,000  Level FlightAware ADS-B
Fri 03:45:12 PM 54.5030 123.7000 129° Southeast 495 570 39,000  Level FlightAware ADS-B
Fri 03:45:47 PM 54.4530 123.8060 129° Southeast 497 572 39,000  Level FlightAware ADS-B
Fri 03:46:37 PM 54.3790 123.9600 129° Southeast 498 573 39,000  Level FlightAware ADS-B
Fri 03:47:17 PM 54.3220 124.0810 129° Southeast 498 573 39,000  Level FlightAware ADS-B
Fri 03:48:02 PM 54.2510 124.2290 129° Southeast 499 574 39,000  Level FlightAware ADS-B
Fri 03:48:42 PM 54.1910 124.3530 130° Southeast 498 573 39,000  Level FlightAware ADS-B
Fri 03:49:17 PM 54.1430 124.4530 129° Southeast 498 573 39,000  Level FlightAware ADS-B
Fri 03:50:07 PM 54.0670 124.6100 129° Southeast 498 573 39,000  Level FlightAware ADS-B
Fri 03:50:47 PM 54.0090 124.7270 130° Southeast 496 571 39,000  Level FlightAware ADS-B
Fri 03:51:27 PM 53.9540 124.8380 130° Southeast 498 573 39,000  Level FlightAware ADS-B
Fri 03:52:12 PM 53.8880 124.9700 130° Southeast 500 575 39,000  Level FlightAware ADS-B
Fri 03:53:22 PM 53.7820 125.1820 130° Southeast 498 573 39,000  Level FlightAware ADS-B
Fri 03:54:02 PM 53.7220 125.3010 130° Southeast 499 574 39,000  Level FlightAware ADS-B
Fri 03:54:37 PM 53.6800 125.3850 130° Southeast 500 575 39,000  Level FlightAware ADS-B
Fri 03:55:42 PM 53.5720 125.5970 131° Southeast 497 572 39,000  Level FlightAware ADS-B
Fri 03:56:17 PM 53.5150 125.7090 131° Southeast 497 572 39,000  Level FlightAware ADS-B
Fri 03:57:02 PM 53.4490 125.8380 131° Southeast 499 574 39,000  Level FlightAware ADS-B
Fri 03:57:47 PM 53.3920 125.9620 128° Southeast 498 573 39,000  Level FlightAware ADS-B
Fri 03:58:27 PM 53.3320 126.0930 127° Southeast 501 577 39,000  Level FlightAware ADS-B
Fri 03:59:07 PM 53.2710 126.2220 128° Southeast 500 575 39,000  Level FlightAware ADS-B
Fri 03:59:47 PM 53.2440 126.2790 128° Southeast 500 575 39,000  Level FlightAware ADS-B
Fri 04:01:42 PM 53.0580 126.6690 128° Southeast 498 573 39,000  Level FlightAware ADS-B
Fri 04:02:27 PM 52.9920 126.8060 129° Southeast 498 573 39,000  Level FlightAware ADS-B
Fri 04:03:07 PM 52.9320 126.9300 129° Southeast 500 575 39,000  Level FlightAware ADS-B
Fri 04:03:52 PM 52.8660 127.0650 129° Southeast 501 577 39,000  Level FlightAware ADS-B
Fri 04:04:57 PM 52.7820 127.2360 129° Southeast 503 579 39,000  Level FlightAware ADS-B
Fri 04:05:42 PM 52.7060 127.3900 129° Southeast 503 579 39,000  Level FlightAware ADS-B
Fri 04:06:22 PM 52.6490 127.5050 129° Southeast 502 578 39,000  Level FlightAware ADS-B
Fri 04:07:22 PM 52.5860 127.6310 129° Southeast 501 577 39,000  Level FlightAware ADS-B
Fri 04:08:07 PM 52.4930 127.8140 130° Southeast 500 575 39,000  Level FlightAware ADS-B
Fri 04:08:42 PM 52.4410 127.9170 130° Southeast 501 577 39,000  Level FlightAware ADS-B
Fri 04:09:27 PM 52.3770 128.0420 130° Southeast 503 579 39,000  Level FlightAware ADS-B
Fri 04:10:12 PM 52.3070 128.1780 130° Southeast 504 580 39,000  Level FlightAware ADS-B
Fri 04:10:52 PM 52.2470 128.2940 130° Southeast 505 581 39,000  Level FlightAware ADS-B
Fri 04:11:32 PM 52.1840 128.4150 130° Southeast 505 581 39,000  Level FlightAware ADS-B
Fri 04:12:17 PM 52.1180 128.5410 130° Southeast 503 579 39,000  Level FlightAware ADS-B
Fri 04:13:12 PM 52.0360 128.6990 130° Southeast 503 579 39,000  Level FlightAware ADS-B
Fri 04:14:07 PM 51.9530 128.8580 130° Southeast 503 579 39,000  Level FlightAware ADS-B
Fri 04:14:47 PM 51.8910 128.9720 131° Southeast 502 578 39,000  Level FlightAware ADS-B
Fri 04:15:27 PM 51.8350 129.0780 131° Southeast 502 578 39,000  Level FlightAware ADS-B
Fri 04:16:12 PM 51.7730 129.1980 130° Southeast 502 578 39,000  Level FlightAware ADS-B
Fri 04:16:52 PM 51.7220 129.2960 130° Southeast 502 578 39,000  Level FlightAware ADS-B
Fri 04:17:32 PM 51.6710 129.3930 130° Southeast 502 578 39,000  Level FlightAware ADS-B
Fri 04:18:22 PM 51.6080 129.5150 130° Southeast 502 578 39,000  Level FlightAware ADS-B
Fri 04:19:02 PM 51.5570 129.6120 130° Southeast 502 578 39,000  Level FlightAware ADS-B
Fri 04:19:42 PM 51.5060 129.7100 130° Southeast 502 578 39,000  Level FlightAware ADS-B
Fri 04:20:22 PM 51.4560 129.8070 130° Southeast 502 578 39,000  Level FlightAware ADS-B
Fri 04:21:07 PM 51.4050 129.9040 130° Southeast 502 578 39,000  Level FlightAware ADS-B
Fri 04:21:52 PM 51.3410 130.0250 130° Southeast 502 578 39,000  Level FlightAware ADS-B
Fri 04:22:32 PM 51.2910 130.1220 129° Southeast 502 578 39,000  Level FlightAware ADS-B
Fri 04:23:12 PM 51.2400 130.2180 130° Southeast 502 578 39,000  Level FlightAware ADS-B
Fri 04:23:52 PM 51.1890 130.3150 130° Southeast 502 578 39,000  Level FlightAware ADS-B
Fri 04:24:12 PM 51.0690 130.4610 143° Southeast 39,000  Level FlightAware ADS-B
Fri 04:24:52 PM 51.0130 130.5570 133° Southeast 505 581 39,000  Level FlightAware ADS-B
Fri 04:25:32 PM 50.9490 130.6670 133° Southeast 505 581 39,000  Level FlightAware ADS-B
Fri 04:26:07 PM 50.8930 130.7620 133° Southeast 505 581 39,000  Level FlightAware ADS-B
Fri 04:26:57 PM 50.8140 130.8950 133° Southeast 505 581 39,000  Level FlightAware ADS-B
Fri 04:27:37 PM 50.7550 130.9960 133° Southeast 508 585 39,000  Level FlightAware ADS-B
Fri 04:28:37 PM 50.6600 131.1560 133° Southeast 510 587 39,000  Level FlightAware ADS-B
Fri 04:29:17 PM 50.6050 131.2470 134° Southeast 511 588 39,000  Level FlightAware ADS-B
Fri 04:29:52 PM 50.5480 131.3420 133° Southeast 511 588 39,000  Level FlightAware ADS-B
Fri 04:30:57 PM 50.4520 131.5010 133° Southeast 512 589 39,000  Level FlightAware ADS-B
Fri 04:31:37 PM 50.3720 131.6330 134° Southeast 512 589 39,000  Level FlightAware ADS-B
Fri 04:32:17 PM 50.3030 131.7460 134° Southeast 513 590 39,000  Level FlightAware ADS-B
Fri 04:33:02 PM 50.2330 131.8610 134° Southeast 514 592 39,000  Level FlightAware ADS-B
Fri 04:33:47 PM 50.1510 131.9940 134° Southeast 514 592 39,000  Level FlightAware ADS-B
Fri 04:34:27 PM 50.0810 132.1080 134° Southeast 512 589 39,000  Level FlightAware ADS-B
Fri 04:35:07 PM 50.0120 132.2190 134° Southeast 514 592 39,000  Level FlightAware ADS-B
Fri 04:35:52 PM 49.9460 132.3230 135° Southeast 515 593 39,000  Level FlightAware ADS-B
Fri 04:36:27 PM 49.8840 132.4210 134° Southeast 514 592 39,000  Level FlightAware ADS-B
Fri 04:37:17 PM 49.8050 132.5450 135° Southeast 515 593 39,000  Level FlightAware ADS-B
Fri 04:37:47 PM 49.7570 132.6210 134° Southeast 517 595 39,000  Level FlightAware ADS-B
Fri 04:38:37 PM 49.6750 132.7480 135° Southeast 520 598 39,000  Level FlightAware ADS-B
Fri 04:39:27 PM 49.5880 132.8840 135° Southeast 519 597 39,000  Level FlightAware ADS-B
Fri 04:40:17 PM 49.5030 133.0150 135° Southeast 519 597 39,000  Level FlightAware ADS-B
Fri 04:41:12 PM 49.4040 133.1660 135° Southeast 517 595 39,000  Level FlightAware ADS-B
Fri 04:41:52 PM 49.3410 133.2630 135° Southeast 518 596 39,000  Level FlightAware ADS-B
Fri 04:42:37 PM 49.2780 133.3580 135° Southeast 519 597 39,000  Level FlightAware ADS-B
Fri 04:43:17 PM 49.2080 133.4840 130° Southeast 522 601 39,000  Level FlightAware ADS-B
Fri 04:43:57 PM 49.1540 133.6130 123° Southeast 520 598 39,000  Level FlightAware ADS-B
Fri 04:44:42 PM 49.0940 133.7690 120° Southeast 518 596 39,000  Level FlightAware ADS-B
Fri 04:46:02 PM 49.0080 133.9910 121° Southeast 518 596 39,000  Level FlightAware ADS-B
Fri 04:46:42 PM 48.9490 134.1400 121° Southeast 524 603 39,000  Level FlightAware ADS-B
Fri 04:47:32 PM 48.8500 134.3980 120° Southeast 525 604 39,000  Level FlightAware ADS-B
Fri 04:48:12 PM 48.8020 134.5300 119° Southeast 523 602 39,000  Level FlightAware ADS-B
Fri 04:48:52 PM 48.7530 134.6610 120° Southeast 522 601 39,000  Level FlightAware ADS-B
Fri 04:49:32 PM 48.7060 134.7850 120° Southeast 522 601 39,000  Level FlightAware ADS-B
Fri 04:50:12 PM 48.6560 134.9170 120° Southeast 523 602 39,000  Level FlightAware ADS-B
Fri 04:50:57 PM 48.5990 135.0400 125° Southeast 524 603 39,000  Level FlightAware ADS-B
Fri 04:52:12 PM 48.4650 135.2330 136° Southeast 524 603 39,000  Level FlightAware ADS-B
Fri 04:52:52 PM 48.3910 135.3060 147° Southeast 521 600 39,000  Level FlightAware ADS-B
Fri 04:53:47 PM 48.2830 135.3850 154° Southeast 521 600 39,000  Level FlightAware ADS-B
Fri 04:54:32 PM 48.1660 135.4640 156° South 521 600 39,000  Level FlightAware ADS-B
Fri 04:55:27 PM 48.0550 135.5370 156° South 519 597 39,000  Level FlightAware ADS-B
Fri 04:56:37 PM 47.9680 135.5940 156° South 520 598 39,000  Level FlightAware ADS-B
Fri 04:57:12 PM 47.8320 135.6840 156° South 523 602 39,000  Level FlightAware ADS-B
Fri 04:57:57 PM 47.8060 135.7000 158° South 523 602 39,000  Level FlightAware ADS-B
Fri 04:58:42 PM 47.7170 135.7590 156° South 523 602 39,000  Level FlightAware ADS-B
Fri 04:59:22 PM 47.6190 135.8220 157° South 524 603 39,000  Level FlightAware ADS-B
Fri 05:00:07 PM 47.5270 135.8820 156° South 524 603 39,000  Level FlightAware ADS-B
Fri 05:01:02 PM 47.4140 135.9550 156° South 523 602 39,000  Level FlightAware ADS-B
Fri 05:01:47 PM 47.2850 136.0380 156° South 523 602 39,000  Level FlightAware ADS-B
Fri 05:02:27 PM 47.1860 136.1020 156° South 523 602 39,000  Level FlightAware ADS-B
Fri 05:03:22 PM 47.0720 136.1780 156° South 524 603 39,000  Level FlightAware ADS-B
Fri 05:03:52 PM 47.0090 136.2190 156° South 524 603 39,000  Level FlightAware ADS-B
Fri 05:04:27 PM 46.9380 136.2660 156° South 524 603 39,000  Level FlightAware ADS-B
Fri 05:05:17 PM 46.8160 136.3260 161° South 522 601 39,000  Level FlightAware ADS-B
Fri 05:05:57 PM 46.7130 136.3520 170° South 515 593 39,000  Level FlightAware ADS-B
Fri 05:06:37 PM 46.6080 136.3680 174° South 513 590 39,000  Level FlightAware ADS-B
Fri 05:07:22 PM 46.5000 136.3850 174° South 514 592 39,000  Level FlightAware ADS-B
Fri 05:08:02 PM 46.4040 136.3990 174° South 514 592 39,000  Level FlightAware ADS-B
Fri 05:08:52 PM 46.2790 136.4180 174° South 512 589 39,000  Level FlightAware ADS-B
Fri 05:09:42 PM 46.1700 136.4340 174° South 514 592 39,000  Level FlightAware ADS-B
Fri 05:10:17 PM 46.0880 136.4460 174° South 515 593 39,000  Level FlightAware ADS-B
Fri 05:11:02 PM 45.9910 136.4610 174° South 517 595 39,000  Level FlightAware ADS-B
Fri 05:11:47 PM 45.8700 136.4790 174° South 519 597 39,000  Level FlightAware ADS-B
Fri 05:12:42 PM 45.7480 136.4970 174° South 518 596 39,000  Level FlightAware ADS-B
Fri 05:13:17 PM 45.6680 136.5080 175° South 519 597 39,000  Level FlightAware ADS-B
Fri 05:13:57 PM 45.5870 136.5200 174° South 519 597 39,000  Level FlightAware ADS-B
Fri 05:14:47 PM 45.4850 136.5360 174° South 519 597 39,000  Level FlightAware ADS-B
Fri 05:15:27 PM 45.4040 136.5480 174° South 519 597 39,000  Level FlightAware ADS-B
Fri 05:16:07 PM 45.3230 136.5600 174° South 519 597 39,000  Level FlightAware ADS-B
Fri 05:16:57 PM 45.2210 136.5750 174° South 519 597 39,000  Level FlightAware ADS-B
Fri 05:17:37 PM 45.1400 136.5870 174° South 519 597 39,000  Level FlightAware ADS-B
Fri 05:18:17 PM 45.0590 136.5990 174° South 519 597 39,000  Level FlightAware ADS-B
Fri 05:18:57 PM 44.9780 136.6110 174° South 519 597 39,000  Level FlightAware ADS-B
Fri 05:19:37 PM 44.8960 136.6240 174° South 519 597 39,000  Level FlightAware ADS-B
Fri 05:20:27 PM 44.7950 136.6390 174° South 519 597 39,000  Level FlightAware ADS-B
Fri 05:21:07 PM 44.7140 136.6510 174° South 519 597 39,000  Level FlightAware ADS-B
Fri 05:21:47 PM 44.6320 136.6630 174° South 519 597 39,000  Level FlightAware ADS-B
Fri 05:22:27 PM 44.5510 136.6750 174° South 519 597 39,000  Level FlightAware ADS-B
Fri 05:25:00 PM 44.2202 136.8349 161° South  Level Estimated
Fri 05:26:00 PM 44.0905 136.8971 161° South  Level Estimated
Fri 05:27:00 PM 43.9607 136.9590 161° South  Level Estimated
Fri 05:28:00 PM 43.8308 137.0207 161° South  Level Estimated
Fri 05:29:00 PM 43.7010 137.0821 161° South  Level Estimated
Fri 05:30:00 PM 43.5711 137.1432 161° South  Level Estimated
Fri 05:31:00 PM 43.4411 137.2041 161° South  Level Estimated
Fri 05:32:00 PM 43.3112 137.2647 161° South  Level Estimated
Fri 05:33:00 PM 43.1812 137.3251 161° South  Level Estimated
Fri 05:34:00 PM 43.0511 137.3852 161° South  Level Estimated
Fri 05:35:00 PM 42.9211 137.4450 161° South  Level Estimated
Fri 05:36:00 PM 42.7910 137.5046 161° South  Level Estimated
Fri 05:37:00 PM 42.6609 137.5639 161° South  Level Estimated
Fri 05:38:00 PM 42.5307 137.6230 161° South  Level Estimated
Fri 05:39:00 PM 42.4005 137.6819 162° South  Level Estimated
Fri 05:40:00 PM 42.2703 137.7405 162° South  Level Estimated
Fri 05:41:00 PM 42.1401 137.7988 162° South  Level Estimated
Fri 05:41:42 PM 41.5810 136.8160 162° South 515 593 39,000  Level FlightAware ADS-B
Fri 05:42:22 PM 41.4950 136.8580 160° South 527 606 39,000  Level FlightAware ADS-B
Fri 05:43:07 PM 41.3890 136.9370 151° Southeast 550 633 39,000  Level FlightAware ADS-B
Fri 05:43:42 PM 41.3140 136.9920 151° Southeast 550 633 39,000  Level FlightAware ADS-B
Fri 05:44:27 PM 41.2110 137.0680 151° Southeast 550 633 39,000  Level FlightAware ADS-B
Fri 05:45:12 PM 41.1110 137.1430 151° Southeast 553 636 39,000  Level FlightAware ADS-B
Fri 05:45:52 PM 41.0260 137.2070 150° Southeast 555 639 39,000  Level FlightAware ADS-B
Fri 05:46:32 PM 40.9330 137.2740 151° Southeast 555 639 39,000  Level FlightAware ADS-B
Fri 05:47:17 PM 40.8300 137.3500 151° Southeast 555 639 39,000  Level FlightAware ADS-B
Fri 05:47:57 PM 40.7400 137.4160 151° Southeast 556 640 39,000  Level FlightAware ADS-B
Fri 05:48:42 PM 40.6370 137.4910 151° Southeast 556 640 39,000  Level FlightAware ADS-B
Fri 05:49:22 PM 40.5470 137.5560 151° Southeast 554 638 39,000  Level FlightAware ADS-B
Fri 05:50:52 PM 40.3540 137.6960 154° Southeast 551 634 39,000  Level FlightAware ADS-B
Fri 05:51:00 PM 40.3452 137.6842 154° Southeast  Level Estimated
Fri 05:53:00 PM 40.0899 137.8615 154° Southeast  Level Estimated
Fri 05:54:00 PM 39.9660 137.9386 154° Southeast  Level Estimated
Fri 05:55:00 PM 39.8421 138.0154 155° Southeast  Level Estimated
Fri 05:55:37 PM 39.7060 138.1580 155° Southeast 552 635 39,000  Level FlightAware ADS-B
Fri 05:56:22 PM 39.6060 138.2290 151° Southeast 550 633 39,000  Level FlightAware ADS-B
Fri 05:57:07 PM 39.5040 138.3000 152° Southeast 551 634 39,000  Level FlightAware ADS-B
Fri 05:57:47 PM 39.4120 138.3640 152° Southeast 550 633 39,000  Level FlightAware ADS-B
Fri 05:58:27 PM 39.3210 138.4280 151° Southeast 550 633 39,000  Level FlightAware ADS-B
Fri 05:59:12 PM 39.2170 138.5000 152° Southeast 550 633 39,000  Level FlightAware ADS-B
Fri 05:59:52 PM 39.1280 138.5620 152° Southeast 550 633 39,000  Level FlightAware ADS-B
Fri 06:00:32 PM 39.0380 138.6240 152° Southeast 550 633 39,000  Level FlightAware ADS-B
Fri 06:01:17 PM 38.9340 138.6960 152° Southeast 549 632 39,000  Level FlightAware ADS-B
Fri 06:01:57 PM 38.8440 138.7580 152° Southeast 547 629 39,000  Level FlightAware ADS-B
Fri 06:02:42 PM 38.7410 138.8280 152° Southeast 546 628 39,000  Level FlightAware ADS-B
Fri 06:03:22 PM 38.6520 138.8890 152° Southeast 546 628 39,000 -225 Level FlightAware ADS-B
Fri 06:04:02 PM 38.5600 138.9510 152° Southeast 547 629 38,700 -776 Descending FlightAware ADS-B
Fri 06:04:47 PM 38.4500 139.0260 152° Southeast 565 650 37,900 -1,059 Descending FlightAware ADS-B
Fri 06:05:27 PM 38.3580 139.0880 152° Southeast 579 666 37,200 -1,050 Descending FlightAware ADS-B
Fri 06:06:07 PM 38.2600 139.1540 152° Southeast 581 669 36,500 -1,271 Descending FlightAware ADS-B
Fri 06:06:52 PM 38.1570 139.2240 152° Southeast 567 652 35,400 -1,694 Descending FlightAware ADS-B
Fri 06:07:32 PM 38.0630 139.2870 152° Southeast 544 626 34,100 -1,121 Descending FlightAware ADS-B
Fri 06:10:00 PM 37.7474 139.4422 159° South  Level Estimated
Fri 06:11:00 PM 37.6194 139.5048 159° South  Level Estimated
Fri 06:12:00 PM 37.4914 139.5671 159° South  Level Estimated
Fri 06:13:00 PM 37.3634 139.6293 159° South  Level Estimated
Fri 06:14:00 PM 37.2353 139.6912 159° South  Level Estimated
Fri 06:15:00 PM 37.1072 139.7529 159° South  Level Estimated
Fri 06:15:42 PM 37.0890 140.0060 159° South 491 565 25,500  Level FlightAware ADS-B
Fri 06:16:22 PM 37.0100 140.0620 150° Southeast 480 552 24,500 -1,482 Descending FlightAware ADS-B
Fri 06:17:07 PM 36.9300 140.1180 151° Southeast 461 531 23,400 -1,553 Descending FlightAware ADS-B
Fri 06:17:47 PM 36.8520 140.1720 151° Southeast 453 521 22,300 -1,482 Descending FlightAware ADS-B
Fri 06:18:32 PM 36.7760 140.2250 151° Southeast 444 511 21,300 -1,482 Descending FlightAware ADS-B
Fri 06:19:12 PM 36.7010 140.2760 151° Southeast 427 491 20,200 -1,500 Descending FlightAware ADS-B
Fri 06:19:52 PM 36.6330 140.3230 151° Southeast 426 490 19,300 -1,412 Descending FlightAware ADS-B
Fri 06:20:37 PM 36.5610 140.3730 151° Southeast 427 491 18,200 -1,533 Descending FlightAware ADS-B
Fri 06:21:22 PM 36.4780 140.4310 151° Southeast 412 474 17,000 -1,482 Descending FlightAware ADS-B
Fri 06:22:02 PM 36.4210 140.4700 151° Southeast 403 464 16,100 -1,341 Descending FlightAware ADS-B
Fri 06:22:47 PM 36.3470 140.5200 151° Southeast 393 452 15,100 -1,360 Descending FlightAware ADS-B
Fri 06:23:17 PM 36.2910 140.5510 156° South 379 436 14,400 -1,326 Descending FlightAware ADS-B
Fri 06:24:22 PM 36.1870 140.5970 160° South 372 428 13,000 -1,255 Descending FlightAware ADS-B
Fri 06:25:07 PM 36.1210 140.6240 162° South 364 419 12,100 -1,271 Descending FlightAware ADS-B
Fri 06:25:47 PM 36.0500 140.6460 166° South 345 397 11,200 -1,200 Descending FlightAware ADS-B
Fri 06:26:27 PM 35.9900 140.6650 166° South 329 379 10,500 -776 Descending FlightAware ADS-B
Fri 06:27:12 PM 35.9250 140.6850 166° South 299 344 10,100 -686 Descending FlightAware ADS-B
Fri 06:27:37 PM 35.8920 140.6950 166° South 289 333 9,700 -764 Descending FlightAware ADS-B
Fri 06:28:07 PM 35.8540 140.7070 166° South 276 318 9,400 -667 Descending FlightAware ADS-B
Fri 06:28:22 PM 35.8410 140.7120 163° South 273 314 9,200 -1,200 Descending FlightAware ADS-B
Fri 06:28:37 PM 35.8180 140.7190 166° South 267 307 8,800 -800 Descending FlightAware ADS-B
Fri 06:29:07 PM 35.7830 140.7230 175° South 248 285 8,600 -545 Descending FlightAware ADS-B
Fri 06:29:32 PM 35.7600 140.7260 174° South 243 280 8,300 -738 Descending FlightAware ADS-B
Fri 06:30:12 PM 35.7140 140.7210 185° South 216 249 7,800 -771 Descending FlightAware ADS-B
Fri 06:30:42 PM 35.6880 140.7110 197° South 208 239 7,400 -667 Descending FlightAware ADS-B
Fri 06:30:57 PM 35.6780 140.7080 194° South 202 232 7,300 -1,000 Descending FlightAware ADS-B
Fri 06:31:12 PM 35.6630 140.7030 195° South 201 231 6,900 -1,429 Descending FlightAware ADS-B
Fri 06:32:17 PM 35.6050 140.6700 205° Southwest 5,400 -1,400 Descending FlightAware ADS-B
Fri 06:32:42 PM 35.5870 140.6490 223° Southwest 214 246 4,800 -1,309 Descending FlightAware ADS-B
Fri 06:33:12 PM 35.5630 140.6210 224° Southwest 222 255 4,200 -1,067 Descending FlightAware ADS-B
Fri 06:33:27 PM 35.5550 140.6040 240° Southwest 222 255 4,000 -450 Descending FlightAware ADS-B
Fri 06:33:52 PM 35.5450 140.5810 242° Southwest 220 253 3,900 -109 Descending FlightAware ADS-B
Fri 06:34:22 PM 35.5440 140.5390 268° West 226 260 3,900 400 Level FlightAware ADS-B
Fri 06:34:52 PM 35.5650 140.5190 322° Northwest 211 243 4,300 -109 Climbing FlightAware ADS-B
Fri 06:35:17 PM 35.5850 140.5050 330° Northwest 202 232 3,800 -1,200 Descending FlightAware ADS-B
Fri 06:35:37 PM 35.6020 140.4930 330° Northwest 202 232 3,400 -1,029 Descending FlightAware ADS-B
Fri 06:35:52 PM 35.6130 140.4850 329° Northwest 202 232 3,200 -857 Descending FlightAware ADS-B
Fri 06:36:12 PM 35.6270 140.4750 330° Northwest 175 201 2,900 -933 Descending FlightAware ADS-B
Fri 06:36:37 PM 35.6480 140.4590 328° Northwest 187 215 2,500 -480 Descending FlightAware ADS-B
Fri 06:37:02 PM 35.6650 140.4470 330° Northwest 187 215 2,500 -1,040 Level FlightAware ADS-B
Fri 06:37:22 PM 35.6770 140.4380 329° Northwest 1,800 -1,560 Descending FlightAware ADS-B
Fri 06:37:52 PM 35.6970 140.4240 330° Northwest 166 191 1,200 -1,100 Descending FlightAware ADS-B
Fri 06:38:22 PM 35.7180 140.4090 330° Northwest 151 174 700 -982 Descending FlightAware ADS-B
Fri 06:38:47 PM 35.7320 140.3990 330° Northwest 147 169 300 -480 Descending FlightAware ADS-B
Fri 06:39:12 PM 35.7450 140.3890 328° Northwest 147 169 300  Level FlightAware ADS-B
Fri 06:41:00 PM 35.7647 140.3864 354° North  Level Estimated
Fri 06:42:00 PM 35.7647 140.3864 338° Northwest  Level Estimated
Fri 06:43:00 PM 35.7647 140.3864 338° Northwest  Level Estimated
Fri 06:44:00 PM 35.7647 140.3864 338° Northwest  Level Estimated
Fri 06:45:00 PM 35.7647 140.3864 338° Northwest  Level Estimated
Fri 06:46:00 PM 35.7647 140.3864 338° Northwest  Level Estimated

Login

Don't have an account? Register now (free) for customized features, flight alerts, and more!